sensor_id;sensor_type;location;lat;lon;timestamp;noise_LAeq;noise_LA_min;noise_LA_max;noise_LA01;noise_LA95
60503;Laerm;51448;51.660;5.824;2022-11-15T00:00:25;44.62;28.76;57.63;;
60503;Laerm;51448;51.660;5.824;2022-11-15T00:03:20;43.55;28.73;55.87;;
60503;Laerm;51448;51.660;5.824;2022-11-15T00:06:06;43.46;28.89;55.14;;
60503;Laerm;51448;51.660;5.824;2022-11-15T00:08:52;43.88;28.84;56.82;;
60503;Laerm;51448;51.660;5.824;2022-11-15T00:11:39;43.66;28.80;56.48;;
60503;Laerm;51448;51.660;5.824;2022-11-15T00:14:26;43.74;28.74;56.51;;
60503;Laerm;51448;51.660;5.824;2022-11-15T00:17:11;43.60;28.90;55.37;;
60503;Laerm;51448;51.660;5.824;2022-11-15T00:19:57;45.75;28.58;57.55;;
60503;Laerm;51448;51.660;5.824;2022-11-15T00:22:43;44.63;29.01;57.04;;
60503;Laerm;51448;51.660;5.824;2022-11-15T00:25:30;43.84;28.95;56.14;;
60503;Laerm;51448;51.660;5.824;2022-11-15T00:28:16;43.70;28.77;55.33;;
60503;Laerm;51448;51.660;5.824;2022-11-15T00:31:04;44.67;28.98;57.55;;
60503;Laerm;51448;51.660;5.824;2022-11-15T00:33:50;43.73;29.18;55.96;;
60503;Laerm;51448;51.660;5.824;2022-11-15T00:36:36;44.11;29.01;56.60;;
60503;Laerm;51448;51.660;5.824;2022-11-15T00:39:22;44.59;28.94;55.92;;
60503;Laerm;51448;51.660;5.824;2022-11-15T00:42:08;44.79;28.90;57.34;;
60503;Laerm;51448;51.660;5.824;2022-11-15T00:44:54;44.02;28.82;57.86;;
60503;Laerm;51448;51.660;5.824;2022-11-15T00:47:44;43.93;29.07;56.72;;
60503;Laerm;51448;51.660;5.824;2022-11-15T00:50:30;44.06;29.18;57.22;;
60503;Laerm;51448;51.660;5.824;2022-11-15T00:53:17;43.97;28.80;54.83;;
60503;Laerm;51448;51.660;5.824;2022-11-15T00:56:03;43.36;28.83;56.15;;
60503;Laerm;51448;51.660;5.824;2022-11-15T00:58:49;43.77;29.32;56.85;;
60503;Laerm;51448;51.660;5.824;2022-11-15T01:01:35;45.27;34.94;55.15;;
60503;Laerm;51448;51.660;5.824;2022-11-15T01:04:21;44.56;29.58;57.75;;
60503;Laerm;51448;51.660;5.824;2022-11-15T01:07:07;44.81;29.02;56.11;;
60503;Laerm;51448;51.660;5.824;2022-11-15T01:09:53;43.48;29.26;55.31;;
60503;Laerm;51448;51.660;5.824;2022-11-15T01:12:39;43.43;28.84;56.27;;
60503;Laerm;51448;51.660;5.824;2022-11-15T01:15:25;45.04;29.05;57.48;;
60503;Laerm;51448;51.660;5.824;2022-11-15T01:18:11;44.08;29.28;55.46;;
60503;Laerm;51448;51.660;5.824;2022-11-15T01:20:57;43.39;29.58;55.65;;
60503;Laerm;51448;51.660;5.824;2022-11-15T01:23:43;43.37;28.97;56.77;;
60503;Laerm;51448;51.660;5.824;2022-11-15T01:26:30;44.35;29.45;57.67;;
60503;Laerm;51448;51.660;5.824;2022-11-15T01:29:16;43.76;29.53;56.56;;
60503;Laerm;51448;51.660;5.824;2022-11-15T01:32:03;45.53;31.50;59.08;;
60503;Laerm;51448;51.660;5.824;2022-11-15T01:34:50;49.96;35.67;59.18;;
60503;Laerm;51448;51.660;5.824;2022-11-15T01:37:36;50.94;33.13;59.85;;
60503;Laerm;51448;51.660;5.824;2022-11-15T01:40:22;43.84;29.68;56.73;;
60503;Laerm;51448;51.660;5.824;2022-11-15T01:43:33;43.77;29.27;54.96;;
60503;Laerm;51448;51.660;5.824;2022-11-15T01:46:33;45.76;29.18;58.39;;
60503;Laerm;51448;51.660;5.824;2022-11-15T01:49:22;44.29;29.35;57.49;;
60503;Laerm;51448;51.660;5.824;2022-11-15T01:52:16;44.09;28.98;55.55;;
60503;Laerm;51448;51.660;5.824;2022-11-15T01:55:16;43.63;29.04;56.68;;
60503;Laerm;51448;51.660;5.824;2022-11-15T01:58:05;44.20;28.55;54.82;;
60503;Laerm;51448;51.660;5.824;2022-11-15T02:00:52;43.38;28.82;56.29;;
60503;Laerm;51448;51.660;5.824;2022-11-15T02:03:56;45.96;30.36;59.98;;
60503;Laerm;51448;51.660;5.824;2022-11-15T02:06:45;44.36;30.46;55.15;;
60503;Laerm;51448;51.660;5.824;2022-11-15T02:09:32;43.59;30.48;55.26;;
60503;Laerm;51448;51.660;5.824;2022-11-15T02:12:21;44.26;31.51;55.58;;
60503;Laerm;51448;51.660;5.824;2022-11-15T02:15:09;50.04;37.09;59.78;;
60503;Laerm;51448;51.660;5.824;2022-11-15T02:18:18;50.10;40.50;58.11;;
60503;Laerm;51448;51.660;5.824;2022-11-15T02:21:44;46.70;34.04;65.82;;
60503;Laerm;51448;51.660;5.824;2022-11-15T02:25:12;47.38;33.52;59.09;;
60503;Laerm;51448;51.660;5.824;2022-11-15T02:34:56;43.69;30.39;60.66;;
60503;Laerm;51448;51.660;5.824;2022-11-15T02:40:58;43.76;29.41;59.99;;
60503;Laerm;51448;51.660;5.824;2022-11-15T02:44:11;43.60;29.59;57.78;;
60503;Laerm;51448;51.660;5.824;2022-11-15T02:47:04;43.84;29.59;56.74;;
60503;Laerm;51448;51.660;5.824;2022-11-15T02:50:03;43.76;29.46;55.54;;
60503;Laerm;51448;51.660;5.824;2022-11-15T02:52:52;44.74;29.17;57.14;;
60503;Laerm;51448;51.660;5.824;2022-11-15T02:55:45;46.03;29.19;58.74;;
60503;Laerm;51448;51.660;5.824;2022-11-15T03:02:06;43.58;29.60;56.26;;
60503;Laerm;51448;51.660;5.824;2022-11-15T03:08:29;45.42;28.83;58.92;;
60503;Laerm;51448;51.660;5.824;2022-11-15T03:11:19;45.51;28.85;59.20;;
60503;Laerm;51448;51.660;5.824;2022-11-15T03:14:20;46.88;29.02;59.49;;
60503;Laerm;51448;51.660;5.824;2022-11-15T03:17:24;46.50;28.73;59.65;;
60503;Laerm;51448;51.660;5.824;2022-11-15T03:20:16;43.96;29.05;56.66;;
60503;Laerm;51448;51.660;5.824;2022-11-15T03:23:08;44.37;28.93;58.66;;
60503;Laerm;51448;51.660;5.824;2022-11-15T03:25:59;46.16;28.99;58.93;;
60503;Laerm;51448;51.660;5.824;2022-11-15T03:28:53;48.51;29.45;60.66;;
60503;Laerm;51448;51.660;5.824;2022-11-15T03:31:49;47.58;29.18;60.33;;
60503;Laerm;51448;51.660;5.824;2022-11-15T03:34:57;44.04;29.35;57.18;;
60503;Laerm;51448;51.660;5.824;2022-11-15T03:40:42;44.51;28.96;57.52;;
60503;Laerm;51448;51.660;5.824;2022-11-15T03:43:48;45.45;29.26;58.69;;
60503;Laerm;51448;51.660;5.824;2022-11-15T03:50:00;46.21;29.43;59.12;;
60503;Laerm;51448;51.660;5.824;2022-11-15T03:52:49;46.67;29.71;59.41;;
60503;Laerm;51448;51.660;5.824;2022-11-15T03:55:35;44.74;29.06;57.07;;
60503;Laerm;51448;51.660;5.824;2022-11-15T03:58:22;44.59;29.67;56.83;;
60503;Laerm;51448;51.660;5.824;2022-11-15T04:01:07;46.55;29.02;59.74;;
60503;Laerm;51448;51.660;5.824;2022-11-15T04:03:54;44.48;29.60;56.45;;
60503;Laerm;51448;51.660;5.824;2022-11-15T04:06:40;44.72;29.57;56.87;;
60503;Laerm;51448;51.660;5.824;2022-11-15T04:09:26;47.57;29.58;60.77;;
60503;Laerm;51448;51.660;5.824;2022-11-15T04:12:12;48.73;29.49;61.32;;
60503;Laerm;51448;51.660;5.824;2022-11-15T04:15:05;47.92;30.01;60.47;;
60503;Laerm;51448;51.660;5.824;2022-11-15T04:17:57;48.84;29.07;61.50;;
60503;Laerm;51448;51.660;5.824;2022-11-15T04:20:43;48.72;29.45;61.29;;
60503;Laerm;51448;51.660;5.824;2022-11-15T04:23:49;47.81;29.69;60.87;;
60503;Laerm;51448;51.660;5.824;2022-11-15T04:26:53;45.62;29.64;57.46;;
60503;Laerm;51448;51.660;5.824;2022-11-15T04:29:39;47.95;29.89;60.53;;
60503;Laerm;51448;51.660;5.824;2022-11-15T04:32:27;45.21;29.85;58.78;;
60503;Laerm;51448;51.660;5.824;2022-11-15T04:35:14;49.39;29.80;63.26;;
60503;Laerm;51448;51.660;5.824;2022-11-15T04:38:01;48.96;29.84;61.68;;
60503;Laerm;51448;51.660;5.824;2022-11-15T04:40:48;45.90;29.80;61.45;;
60503;Laerm;51448;51.660;5.824;2022-11-15T04:43:37;48.47;29.60;60.80;;
60503;Laerm;51448;51.660;5.824;2022-11-15T04:46:25;49.92;29.67;62.03;;
60503;Laerm;51448;51.660;5.824;2022-11-15T04:49:10;48.73;30.04;60.97;;
60503;Laerm;51448;51.660;5.824;2022-11-15T04:51:57;45.06;29.40;57.49;;
60503;Laerm;51448;51.660;5.824;2022-11-15T04:54:43;44.97;29.51;57.57;;
60503;Laerm;51448;51.660;5.824;2022-11-15T04:57:29;45.06;30.38;57.83;;
60503;Laerm;51448;51.660;5.824;2022-11-15T05:00:16;45.18;29.21;57.51;;
60503;Laerm;51448;51.660;5.824;2022-11-15T05:03:03;48.50;29.77;61.03;;
60503;Laerm;51448;51.660;5.824;2022-11-15T05:06:07;48.20;29.58;60.81;;
60503;Laerm;51448;51.660;5.824;2022-11-15T05:08:56;49.10;29.98;61.37;;
60503;Laerm;51448;51.660;5.824;2022-11-15T05:11:44;49.41;30.14;61.36;;
60503;Laerm;51448;51.660;5.824;2022-11-15T05:14:30;48.93;30.70;62.08;;
60503;Laerm;51448;51.660;5.824;2022-11-15T05:17:16;47.10;30.54;68.57;;
60503;Laerm;51448;51.660;5.824;2022-11-15T05:20:02;48.09;31.18;60.99;;
60503;Laerm;51448;51.660;5.824;2022-11-15T05:22:48;49.07;30.44;62.87;;
60503;Laerm;51448;51.660;5.824;2022-11-15T05:25:40;48.99;30.52;62.77;;
60503;Laerm;51448;51.660;5.824;2022-11-15T05:28:26;48.41;30.45;61.72;;
60503;Laerm;51448;51.660;5.824;2022-11-15T05:31:15;47.17;31.76;63.66;;
60503;Laerm;51448;51.660;5.824;2022-11-15T05:34:06;47.86;31.37;63.68;;
60503;Laerm;51448;51.660;5.824;2022-11-15T05:36:55;50.01;32.87;61.06;;
60503;Laerm;51448;51.660;5.824;2022-11-15T05:39:41;47.96;32.99;60.76;;
60503;Laerm;51448;51.660;5.824;2022-11-15T05:42:30;45.27;32.50;58.50;;
60503;Laerm;51448;51.660;5.824;2022-11-15T05:45:16;47.01;32.66;62.20;;
60503;Laerm;51448;51.660;5.824;2022-11-15T05:48:14;50.63;31.67;63.71;;
60503;Laerm;51448;51.660;5.824;2022-11-15T05:51:03;50.57;31.88;61.66;;
60503;Laerm;51448;51.660;5.824;2022-11-15T05:53:52;50.76;32.08;62.36;;
60503;Laerm;51448;51.660;5.824;2022-11-15T05:56:45;50.10;32.19;62.76;;
60503;Laerm;51448;51.660;5.824;2022-11-15T05:59:33;47.45;32.62;61.13;;
60503;Laerm;51448;51.660;5.824;2022-11-15T06:02:20;47.15;31.87;59.92;;
60503;Laerm;51448;51.660;5.824;2022-11-15T06:05:06;45.39;32.33;57.62;;
60503;Laerm;51448;51.660;5.824;2022-11-15T06:07:52;50.04;32.25;62.13;;
60503;Laerm;51448;51.660;5.824;2022-11-15T06:10:37;50.43;32.99;64.11;;
60503;Laerm;51448;51.660;5.824;2022-11-15T06:13:24;50.68;32.78;68.53;;
60503;Laerm;51448;51.660;5.824;2022-11-15T06:16:10;50.64;32.74;68.71;;
60503;Laerm;51448;51.660;5.824;2022-11-15T06:18:59;51.26;33.86;69.08;;
60503;Laerm;51448;51.660;5.824;2022-11-15T06:21:45;49.94;33.71;62.52;;
60503;Laerm;51448;51.660;5.824;2022-11-15T06:24:31;48.58;33.88;65.95;;
60503;Laerm;51448;51.660;5.824;2022-11-15T06:27:18;49.17;36.99;67.19;;
60503;Laerm;51448;51.660;5.824;2022-11-15T06:30:07;49.98;36.65;61.70;;
60503;Laerm;51448;51.660;5.824;2022-11-15T06:33:08;49.71;36.99;62.15;;
60503;Laerm;51448;51.660;5.824;2022-11-15T06:36:09;49.49;37.91;64.04;;
60503;Laerm;51448;51.660;5.824;2022-11-15T06:39:05;52.83;37.73;68.29;;
60503;Laerm;51448;51.660;5.824;2022-11-15T06:41:51;50.48;36.47;65.85;;
60503;Laerm;51448;51.660;5.824;2022-11-15T06:44:37;54.13;45.75;62.11;;
60503;Laerm;51448;51.660;5.824;2022-11-15T06:47:27;54.13;42.58;82.07;;
60503;Laerm;51448;51.660;5.824;2022-11-15T06:50:13;55.32;45.69;74.76;;
60503;Laerm;51448;51.660;5.824;2022-11-15T06:53:04;53.39;44.65;71.74;;
60503;Laerm;51448;51.660;5.824;2022-11-15T06:55:52;55.06;44.00;74.06;;
60503;Laerm;51448;51.660;5.824;2022-11-15T06:58:40;69.88;39.75;90.94;;
60503;Laerm;51448;51.660;5.824;2022-11-15T07:01:26;75.57;44.96;89.16;;
60503;Laerm;51448;51.660;5.824;2022-11-15T07:04:15;70.03;37.40;87.98;;
60503;Laerm;51448;51.660;5.824;2022-11-15T07:07:04;54.59;37.58;72.50;;
60503;Laerm;51448;51.660;5.824;2022-11-15T07:09:50;48.26;35.41;60.60;;
60503;Laerm;51448;51.660;5.824;2022-11-15T07:12:36;50.25;35.23;70.27;;
60503;Laerm;51448;51.660;5.824;2022-11-15T07:15:26;50.86;38.52;71.76;;
60503;Laerm;51448;51.660;5.824;2022-11-15T07:18:12;55.20;39.89;64.56;;
60503;Laerm;51448;51.660;5.824;2022-11-15T07:21:07;54.22;39.50;67.05;;
60503;Laerm;51448;51.660;5.824;2022-11-15T07:23:54;50.36;36.87;65.29;;
60503;Laerm;51448;51.660;5.824;2022-11-15T07:26:40;51.41;35.24;71.32;;
60503;Laerm;51448;51.660;5.824;2022-11-15T07:29:27;49.59;34.83;64.34;;
60503;Laerm;51448;51.660;5.824;2022-11-15T07:32:13;47.89;33.73;61.89;;
60503;Laerm;51448;51.660;5.824;2022-11-15T07:34:59;47.37;37.44;61.30;;
60503;Laerm;51448;51.660;5.824;2022-11-15T07:37:59;48.49;37.45;61.69;;
60503;Laerm;51448;51.660;5.824;2022-11-15T07:40:46;48.42;37.73;63.80;;
60503;Laerm;51448;51.660;5.824;2022-11-15T07:43:32;53.19;37.69;69.53;;
60503;Laerm;51448;51.660;5.824;2022-11-15T07:46:20;49.15;37.03;64.29;;
60503;Laerm;51448;51.660;5.824;2022-11-15T07:49:09;45.75;37.24;67.11;;
60503;Laerm;51448;51.660;5.824;2022-11-15T07:51:54;49.56;36.93;62.61;;
60503;Laerm;51448;51.660;5.824;2022-11-15T07:54:41;57.50;36.61;82.18;;
60503;Laerm;51448;51.660;5.824;2022-11-15T07:57:27;51.68;36.93;74.86;;
60503;Laerm;51448;51.660;5.824;2022-11-15T08:00:15;56.16;37.05;83.04;;
60503;Laerm;51448;51.660;5.824;2022-11-15T08:03:11;62.92;37.07;88.95;;
60503;Laerm;51448;51.660;5.824;2022-11-15T08:05:57;48.53;36.48;69.63;;
60503;Laerm;51448;51.660;5.824;2022-11-15T08:08:44;51.73;36.82;78.41;;
60503;Laerm;51448;51.660;5.824;2022-11-15T08:11:30;48.11;36.28;59.15;;
60503;Laerm;51448;51.660;5.824;2022-11-15T08:14:17;50.26;36.90;64.83;;
60503;Laerm;51448;51.660;5.824;2022-11-15T08:17:03;48.90;37.12;61.66;;
60503;Laerm;51448;51.660;5.824;2022-11-15T08:19:50;50.19;37.00;64.16;;
60503;Laerm;51448;51.660;5.824;2022-11-15T08:22:36;65.35;36.85;89.67;;
60503;Laerm;51448;51.660;5.824;2022-11-15T08:25:29;49.31;36.87;62.77;;
60503;Laerm;51448;51.660;5.824;2022-11-15T08:28:16;49.44;36.53;62.73;;
60503;Laerm;51448;51.660;5.824;2022-11-15T08:31:03;46.20;36.85;61.27;;
60503;Laerm;51448;51.660;5.824;2022-11-15T08:33:49;51.44;37.17;75.74;;
60503;Laerm;51448;51.660;5.824;2022-11-15T08:36:36;50.96;36.89;69.24;;
60503;Laerm;51448;51.660;5.824;2022-11-15T08:39:31;49.75;36.41;76.01;;
60503;Laerm;51448;51.660;5.824;2022-11-15T08:42:17;48.44;36.55;68.65;;
60503;Laerm;51448;51.660;5.824;2022-11-15T08:45:06;51.27;37.98;76.01;;
60503;Laerm;51448;51.660;5.824;2022-11-15T08:47:53;47.45;36.60;68.81;;
60503;Laerm;51448;51.660;5.824;2022-11-15T08:50:40;53.70;35.01;76.45;;
60503;Laerm;51448;51.660;5.824;2022-11-15T08:53:27;52.21;33.78;78.79;;
60503;Laerm;51448;51.660;5.824;2022-11-15T08:56:14;61.55;36.82;87.02;;
60503;Laerm;51448;51.660;5.824;2022-11-15T08:59:07;65.32;36.73;84.28;;
60503;Laerm;51448;51.660;5.824;2022-11-15T09:01:53;62.23;37.20;78.69;;
60503;Laerm;51448;51.660;5.824;2022-11-15T09:04:43;68.21;35.83;80.82;;
60503;Laerm;51448;51.660;5.824;2022-11-15T09:07:31;60.36;36.65;80.26;;
60503;Laerm;51448;51.660;5.824;2022-11-15T09:10:18;57.05;35.70;81.59;;
60503;Laerm;51448;51.660;5.824;2022-11-15T09:13:06;63.64;37.95;95.29;;
60503;Laerm;51448;51.660;5.824;2022-11-15T09:15:57;64.12;36.67;84.59;;
60503;Laerm;51448;51.660;5.824;2022-11-15T09:18:46;63.14;34.86;90.70;;
60503;Laerm;51448;51.660;5.824;2022-11-15T09:21:33;61.02;34.41;78.64;;
60503;Laerm;51448;51.660;5.824;2022-11-15T09:24:20;56.54;35.26;80.42;;
60503;Laerm;51448;51.660;5.824;2022-11-15T09:27:07;67.48;35.41;92.56;;
60503;Laerm;51448;51.660;5.824;2022-11-15T09:29:56;65.30;36.27;84.56;;
60503;Laerm;51448;51.660;5.824;2022-11-15T09:32:45;63.56;35.13;79.37;;
60503;Laerm;51448;51.660;5.824;2022-11-15T09:35:35;49.61;33.28;70.90;;
60503;Laerm;51448;51.660;5.824;2022-11-15T09:38:21;56.60;34.09;79.67;;
60503;Laerm;51448;51.660;5.824;2022-11-15T09:44:42;59.25;33.08;80.74;;
60503;Laerm;51448;51.660;5.824;2022-11-15T09:51:24;59.20;35.37;75.52;;
60503;Laerm;51448;51.660;5.824;2022-11-15T09:57:04;51.25;36.21;67.79;;
60503;Laerm;51448;51.660;5.824;2022-11-15T10:03:14;62.28;37.58;86.46;;
60503;Laerm;51448;51.660;5.824;2022-11-15T10:05:47;60.47;37.91;77.28;;
60503;Laerm;51448;51.660;5.824;2022-11-15T10:11:41;49.02;37.08;75.42;;
60503;Laerm;51448;51.660;5.824;2022-11-15T10:14:25;49.69;37.59;71.23;;
60503;Laerm;51448;51.660;5.824;2022-11-15T10:17:14;49.34;36.46;62.69;;
60503;Laerm;51448;51.660;5.824;2022-11-15T10:20:20;49.60;38.91;66.74;;
60503;Laerm;51448;51.660;5.824;2022-11-15T10:23:00;47.88;38.21;66.07;;
60503;Laerm;51448;51.660;5.824;2022-11-15T10:25:33;47.92;37.43;65.64;;
60503;Laerm;51448;51.660;5.824;2022-11-15T10:28:15;50.80;37.37;75.23;;
60503;Laerm;51448;51.660;5.824;2022-11-15T10:30:52;53.85;40.20;84.05;;
60503;Laerm;51448;51.660;5.824;2022-11-15T10:33:39;49.17;39.50;63.80;;
60503;Laerm;51448;51.660;5.824;2022-11-15T10:36:17;50.20;38.16;62.52;;
60503;Laerm;51448;51.660;5.824;2022-11-15T10:44:12;51.06;37.31;67.26;;
60503;Laerm;51448;51.660;5.824;2022-11-15T10:47:25;51.76;40.43;78.60;;
60503;Laerm;51448;51.660;5.824;2022-11-15T10:51:41;52.64;39.30;82.42;;
60503;Laerm;51448;51.660;5.824;2022-11-15T10:56:59;61.86;39.46;85.90;;
60503;Laerm;51448;51.660;5.824;2022-11-15T10:59:32;65.75;36.00;90.35;;
60503;Laerm;51448;51.660;5.824;2022-11-15T11:02:39;69.01;38.03;89.26;;
60503;Laerm;51448;51.660;5.824;2022-11-15T11:05:37;69.71;48.04;92.82;;
60503;Laerm;51448;51.660;5.824;2022-11-15T11:11:01;75.03;39.64;89.04;;
60503;Laerm;51448;51.660;5.824;2022-11-15T11:13:34;66.45;41.71;97.12;;
60503;Laerm;51448;51.660;5.824;2022-11-15T11:16:33;54.42;39.29;76.28;;
60503;Laerm;51448;51.660;5.824;2022-11-15T11:20:30;55.13;41.42;81.52;;
60503;Laerm;51448;51.660;5.824;2022-11-15T11:32:03;72.80;47.03;86.48;;
60503;Laerm;51448;51.660;5.824;2022-11-15T11:34:54;61.71;45.03;79.39;;
60503;Laerm;51448;51.660;5.824;2022-11-15T11:49:37;47.73;36.96;63.91;;
60503;Laerm;51448;51.660;5.824;2022-11-15T11:52:29;50.18;36.89;75.59;;
60503;Laerm;51448;51.660;5.824;2022-11-15T11:55:23;61.05;34.33;88.12;;
60503;Laerm;51448;51.660;5.824;2022-11-15T11:58:39;48.16;35.57;63.00;;
60503;Laerm;51448;51.660;5.824;2022-11-15T12:01:22;47.96;34.28;64.54;;
60503;Laerm;51448;51.660;5.824;2022-11-15T12:03:59;47.78;32.93;63.11;;
60503;Laerm;51448;51.660;5.824;2022-11-15T12:09:58;47.67;34.04;67.89;;
60503;Laerm;51448;51.660;5.824;2022-11-15T12:15:35;48.56;32.10;73.68;;
60503;Laerm;51448;51.660;5.824;2022-11-15T12:18:12;49.20;33.50;60.06;;
60503;Laerm;51448;51.660;5.824;2022-11-15T12:20:56;48.40;32.44;58.98;;
60503;Laerm;51448;51.660;5.824;2022-11-15T12:23:30;48.78;32.03;63.21;;
60503;Laerm;51448;51.660;5.824;2022-11-15T12:26:10;48.78;31.94;61.92;;
60503;Laerm;51448;51.660;5.824;2022-11-15T12:28:50;47.52;33.90;59.78;;
60503;Laerm;51448;51.660;5.824;2022-11-15T12:31:53;47.31;32.13;59.69;;
60503;Laerm;51448;51.660;5.824;2022-11-15T12:36:54;49.63;33.28;69.44;;
60503;Laerm;51448;51.660;5.824;2022-11-15T12:46:58;53.30;38.23;74.20;;
60503;Laerm;51448;51.660;5.824;2022-11-15T12:52:07;53.11;46.20;77.48;;
60503;Laerm;51448;51.660;5.824;2022-11-15T12:59:55;69.01;52.96;77.88;;
60503;Laerm;51448;51.660;5.824;2022-11-15T13:02:30;69.75;36.36;80.73;;
60503;Laerm;51448;51.660;5.824;2022-11-15T13:13:03;69.66;40.58;79.27;;
60503;Laerm;51448;51.660;5.824;2022-11-15T13:15:59;70.41;47.74;81.50;;
60503;Laerm;51448;51.660;5.824;2022-11-15T13:18:40;70.63;48.32;78.41;;
60503;Laerm;51448;51.660;5.824;2022-11-15T13:21:25;63.00;39.53;83.68;;
60503;Laerm;51448;51.660;5.824;2022-11-15T13:24:19;68.95;49.51;78.09;;
60503;Laerm;51448;51.660;5.824;2022-11-15T13:26:46;66.56;36.39;78.72;;
60503;Laerm;51448;51.660;5.824;2022-11-15T13:29:17;64.97;36.84;88.68;;
60503;Laerm;51448;51.660;5.824;2022-11-15T13:31:46;78.56;33.75;88.86;;
60503;Laerm;51448;51.660;5.824;2022-11-15T13:34:29;73.04;35.36;89.23;;
60503;Laerm;51448;51.660;5.824;2022-11-15T13:37:30;54.37;36.02;78.54;;
60503;Laerm;51448;51.660;5.824;2022-11-15T13:40:20;55.07;39.63;75.50;;
60503;Laerm;51448;51.660;5.824;2022-11-15T13:42:49;62.50;38.82;81.66;;
60503;Laerm;51448;51.660;5.824;2022-11-15T13:45:18;55.24;35.09;77.66;;
60503;Laerm;51448;51.660;5.824;2022-11-15T13:47:56;53.29;36.82;80.99;;
60503;Laerm;51448;51.660;5.824;2022-11-15T13:50:33;51.75;37.46;71.67;;
60503;Laerm;51448;51.660;5.824;2022-11-15T13:53:03;52.24;33.45;77.17;;
60503;Laerm;51448;51.660;5.824;2022-11-15T13:55:32;65.08;33.12;95.80;;
60503;Laerm;51448;51.660;5.824;2022-11-15T13:58:04;76.22;39.74;96.59;;
60503;Laerm;51448;51.660;5.824;2022-11-15T14:00:40;65.78;34.98;94.67;;
60503;Laerm;51448;51.660;5.824;2022-11-15T14:03:26;61.30;34.14;79.75;;
60503;Laerm;51448;51.660;5.824;2022-11-15T14:06:17;73.22;35.69;95.48;;
60503;Laerm;51448;51.660;5.824;2022-11-15T14:09:30;70.45;33.18;96.66;;
60503;Laerm;51448;51.660;5.824;2022-11-15T14:12:22;61.25;36.71;71.70;;
60503;Laerm;51448;51.660;5.824;2022-11-15T14:14:50;69.81;37.28;94.20;;
60503;Laerm;51448;51.660;5.824;2022-11-15T14:17:35;50.57;37.66;73.96;;
60503;Laerm;51448;51.660;5.824;2022-11-15T14:22:57;58.66;34.40;85.03;;
60503;Laerm;51448;51.660;5.824;2022-11-15T14:25:34;55.98;32.22;83.08;;
60503;Laerm;51448;51.660;5.824;2022-11-15T14:30:45;52.16;32.55;77.95;;
60503;Laerm;51448;51.660;5.824;2022-11-15T14:33:29;62.26;38.09;86.72;;
60503;Laerm;51448;51.660;5.824;2022-11-15T14:36:14;59.97;39.27;83.47;;
60503;Laerm;51448;51.660;5.824;2022-11-15T14:38:42;58.97;34.12;84.54;;
60503;Laerm;51448;51.660;5.824;2022-11-15T14:41:23;55.04;35.05;81.17;;
60503;Laerm;51448;51.660;5.824;2022-11-15T14:43:52;58.43;35.16;82.29;;
60503;Laerm;51448;51.660;5.824;2022-11-15T14:46:20;72.03;35.98;82.98;;
60503;Laerm;51448;51.660;5.824;2022-11-15T14:48:47;67.59;39.16;90.68;;
60503;Laerm;51448;51.660;5.824;2022-11-15T14:51:18;63.97;37.91;78.54;;
60503;Laerm;51448;51.660;5.824;2022-11-15T14:53:47;64.07;42.35;80.01;;
60503;Laerm;51448;51.660;5.824;2022-11-15T14:56:15;68.35;43.51;81.51;;
60503;Laerm;51448;51.660;5.824;2022-11-15T14:58:43;53.94;39.62;75.52;;
60503;Laerm;51448;51.660;5.824;2022-11-15T15:01:22;53.61;42.79;74.08;;
60503;Laerm;51448;51.660;5.824;2022-11-15T15:03:52;56.93;42.57;74.18;;
60503;Laerm;51448;51.660;5.824;2022-11-15T15:06:23;51.50;41.29;65.86;;
60503;Laerm;51448;51.660;5.824;2022-11-15T15:08:50;56.82;41.58;79.58;;
60503;Laerm;51448;51.660;5.824;2022-11-15T15:11:29;56.09;40.20;80.95;;
60503;Laerm;51448;51.660;5.824;2022-11-15T15:13:57;55.52;39.31;83.90;;
60503;Laerm;51448;51.660;5.824;2022-11-15T15:16:27;54.10;38.11;80.25;;
60503;Laerm;51448;51.660;5.824;2022-11-15T17:43:47;57.36;35.01;76.16;;
60503;Laerm;51448;51.660;5.824;2022-11-15T17:46:19;63.12;35.78;92.05;;
60503;Laerm;51448;51.660;5.824;2022-11-15T17:48:48;54.91;35.34;86.69;;
60503;Laerm;51448;51.660;5.824;2022-11-15T17:51:17;58.16;34.22;89.57;;
60503;Laerm;51448;51.660;5.824;2022-11-15T17:53:46;51.31;34.22;72.34;;
60503;Laerm;51448;51.660;5.824;2022-11-15T17:56:18;53.56;27.79;78.99;;
60503;Laerm;51448;51.660;5.824;2022-11-15T17:58:51;28.92;27.31;40.65;;
60503;Laerm;51448;51.660;5.824;2022-11-15T18:01:27;28.85;27.33;36.18;;
60503;Laerm;51448;51.660;5.824;2022-11-15T18:03:56;50.77;27.42;62.18;;
60503;Laerm;51448;51.660;5.824;2022-11-15T18:06:28;28.99;27.35;38.11;;
60503;Laerm;51448;51.660;5.824;2022-11-15T18:08:57;51.94;27.36;72.40;;
60503;Laerm;51448;51.660;5.824;2022-11-15T18:11:29;56.02;27.26;82.68;;
60503;Laerm;51448;51.660;5.824;2022-11-15T18:14:14;51.07;27.16;62.57;;
60503;Laerm;51448;51.660;5.824;2022-11-15T18:16:42;51.25;27.21;63.00;;
60503;Laerm;51448;51.660;5.824;2022-11-15T18:19:10;51.60;27.17;62.61;;
60503;Laerm;51448;51.660;5.824;2022-11-15T18:21:43;51.93;27.13;63.04;;
60503;Laerm;51448;51.660;5.824;2022-11-15T18:24:29;50.97;27.11;63.08;;
60503;Laerm;51448;51.660;5.824;2022-11-15T18:26:59;51.33;27.04;63.25;;
60503;Laerm;51448;51.660;5.824;2022-11-15T18:29:27;51.38;27.40;62.65;;
60503;Laerm;51448;51.660;5.824;2022-11-15T18:31:54;51.19;27.46;62.79;;
60503;Laerm;51448;51.660;5.824;2022-11-15T18:34:26;50.62;27.27;62.34;;
60503;Laerm;51448;51.660;5.824;2022-11-15T18:36:59;50.68;27.49;62.83;;
60503;Laerm;51448;51.660;5.824;2022-11-15T18:39:28;51.32;26.95;63.00;;
60503;Laerm;51448;51.660;5.824;2022-11-15T18:41:56;50.95;27.34;62.42;;
60503;Laerm;51448;51.660;5.824;2022-11-15T18:44:23;50.77;34.22;62.61;;
60503;Laerm;51448;51.660;5.824;2022-11-15T18:46:50;50.51;33.90;62.52;;
60503;Laerm;51448;51.660;5.824;2022-11-15T18:49:18;50.44;33.95;62.49;;
60503;Laerm;51448;51.660;5.824;2022-11-15T18:51:48;50.31;33.84;62.26;;
60503;Laerm;51448;51.660;5.824;2022-11-15T18:54:16;50.25;33.98;62.32;;
60503;Laerm;51448;51.660;5.824;2022-11-15T18:56:44;48.21;29.10;60.69;;
60503;Laerm;51448;51.660;5.824;2022-11-15T18:59:13;48.71;27.13;60.90;;
60503;Laerm;51448;51.660;5.824;2022-11-15T19:01:43;49.86;27.04;62.18;;
60503;Laerm;51448;51.660;5.824;2022-11-15T19:04:18;48.08;27.09;61.11;;
60503;Laerm;51448;51.660;5.824;2022-11-15T19:06:48;47.64;27.03;61.17;;
60503;Laerm;51448;51.660;5.824;2022-11-15T19:09:18;47.77;27.05;61.24;;
60503;Laerm;51448;51.660;5.824;2022-11-15T19:11:47;48.63;27.06;61.74;;
60503;Laerm;51448;51.660;5.824;2022-11-15T19:14:18;48.33;27.03;61.49;;
60503;Laerm;51448;51.660;5.824;2022-11-15T19:16:47;47.21;27.06;61.38;;
60503;Laerm;51448;51.660;5.824;2022-11-15T19:19:24;48.28;27.08;61.44;;
60503;Laerm;51448;51.660;5.824;2022-11-15T19:21:54;46.94;27.00;60.92;;
60503;Laerm;51448;51.660;5.824;2022-11-15T19:24:24;47.37;26.80;61.01;;
60503;Laerm;51448;51.660;5.824;2022-11-15T19:26:53;47.75;27.11;61.38;;
60503;Laerm;51448;51.660;5.824;2022-11-15T19:29:21;47.87;27.73;61.31;;
60503;Laerm;51448;51.660;5.824;2022-11-15T19:31:48;49.33;27.57;65.64;;
60503;Laerm;51448;51.660;5.824;2022-11-15T19:34:16;48.77;27.17;61.47;;
60503;Laerm;51448;51.660;5.824;2022-11-15T19:36:44;47.32;27.25;61.03;;